KPTW/PTW METAR and TAF weather

Enter ICAO airport designator
Station Type Date Time Source
KPTW METAR 2022/11/16 11:38 UTC NOAA

KPTW 161138Z AUTO 28004KT 9SM SCT005 BKN016 OVC026 03/03 A2996 RMK AO2 T00280028


Station Type Date Time Source
KPTW Decoded METAR 2022/11/16 11:38 UTC NOAA

POTTSTOWN LIMERICK AIRPORT, PA, United States (KPTW) 40-14N 075-33W 89M
Nov 16, 2022 - 06:38 AM EST / 2022.11.16 1138 UTC
Wind: from the W (280 degrees) at 5 MPH (4 KT):0
Visibility: 9 mile(s):0
Sky conditions: overcast
Temperature: 37.0 F (2.8 C)
Dew Point: 37.0 F (2.8 C)
Relative Humidity: 100%
Pressure (altimeter): 29.96 in. Hg (1014 hPa)
ob: KPTW 161138Z AUTO 28004KT 9SM SCT005 BKN016 OVC026 03/03 A2996 RMK AO2 T00280028
cycle: 11

Station Type Date Time Source
KPTW TAF UTC NOAA

Error!

Example: see airport list